Time;durP1;ratioP1;P1;durP2;ratioP2;P2;SDS_P1;SDS_P2;PMS_P1;PMS_P2;Temp;Humidity;BMP_temperature;BMP_pressure;BME280_temperature;BME280_humidity;BME280_pressure;Samples;Min_cycle;Max_cycle;Signal;HPM_P1;HPM_P2
2023/01/06 00:01:29;;;;;;;8.52;4.78;;;;;;;;;;5061716;28;20025;-60
2023/01/06 00:03:57;;;;;;;7.93;4.50;;;;;;;;;;5064599;28;20344;-59
2023/01/06 00:06:26;;;;;;;9.55;4.30;;;;;;;;;;5059403;28;20044;-59
2023/01/06 00:08:51;;;;;;;7.20;3.40;;;;;;;;;;5064878;28;20358;-59
2023/01/06 00:11:18;;;;;;;7.80;3.60;;;;;;;;;;5064204;28;20440;-59
2023/01/06 00:13:43;;;;;;;6.13;3.60;;;;;;;;;;5065914;28;20115;-59
2023/01/06 00:16:12;;;;;;;5.72;3.47;;;;;;;;;;5060742;28;20128;-61
2023/01/06 00:18:38;;;;;;;6.22;3.50;;;;;;;;;;5061870;28;20077;-61
2023/01/06 00:21:04;;;;;;;6.00;3.35;;;;;;;;;;5060886;28;20036;-60
2023/01/06 00:23:29;;;;;;;6.72;3.13;;;;;;;;;;5065443;28;20443;-60
2023/01/06 00:25:55;;;;;;;4.95;3.00;;;;;;;;;;5063959;28;20422;-60
2023/01/06 00:28:20;;;;;;;6.68;3.08;;;;;;;;;;5064152;28;20004;-60
2023/01/06 00:30:48;;;;;;;5.18;2.80;;;;;;;;;;5063142;28;20030;-61
2023/01/06 00:33:13;;;;;;;5.45;3.00;;;;;;;;;;5062178;28;20453;-60
2023/01/06 00:35:39;;;;;;;6.35;3.10;;;;;;;;;;5064291;28;20119;-58
2023/01/06 00:38:04;;;;;;;8.00;2.90;;;;;;;;;;5064322;28;20081;-60
2023/01/06 00:40:29;;;;;;;5.22;3.05;;;;;;;;;;5063198;28;20051;-58
2023/01/06 00:42:54;;;;;;;7.65;3.03;;;;;;;;;;5058703;28;20552;-59
2023/01/06 00:45:19;;;;;;;5.15;2.90;;;;;;;;;;5063820;28;20066;-59
2023/01/06 00:47:45;;;;;;;5.32;2.75;;;;;;;;;;5064223;28;20103;-59
2023/01/06 00:50:10;;;;;;;4.35;2.60;;;;;;;;;;5064693;28;20166;-59
2023/01/06 00:52:35;;;;;;;3.20;2.00;;;;;;;;;;5063805;28;20040;-59
2023/01/06 00:55:01;;;;;;;3.88;2.50;;;;;;;;;;5063802;28;20648;-58
2023/01/06 00:57:26;;;;;;;3.58;2.30;;;;;;;;;;5057445;28;20035;-58
2023/01/06 00:59:51;;;;;;;4.78;2.50;;;;;;;;;;5063594;28;20020;-58
2023/01/06 01:02:16;;;;;;;3.33;2.17;;;;;;;;;;5064229;28;20052;-60
2023/01/06 01:04:42;;;;;;;4.45;2.15;;;;;;;;;;5063720;28;20024;-59
2023/01/06 01:07:07;;;;;;;4.40;1.95;;;;;;;;;;5062413;28;20048;-59
2023/01/06 01:09:32;;;;;;;4.00;2.28;;;;;;;;;;5063894;28;20373;-58
2023/01/06 01:12:10;;;;;;;4.32;2.30;;;;;;;;;;5062449;28;20423;-58
2023/01/06 01:14:36;;;;;;;2.90;1.83;;;;;;;;;;5060013;28;20426;-60
2023/01/06 01:17:02;;;;;;;3.33;1.80;;;;;;;;;;5062529;28;20051;-58
2023/01/06 01:19:27;;;;;;;3.15;1.50;;;;;;;;;;5061851;28;20486;-59
2023/01/06 01:21:52;;;;;;;3.30;1.50;;;;;;;;;;5062085;28;20032;-60
2023/01/06 01:24:18;;;;;;;1.95;1.38;;;;;;;;;;5064648;28;20024;-60
2023/01/06 01:26:43;;;;;;;2.55;1.17;;;;;;;;;;5064066;28;20025;-61
2023/01/06 01:29:09;;;;;;;1.60;1.00;;;;;;;;;;5063189;28;20017;-61
2023/01/06 01:31:34;;;;;;;1.83;1.20;;;;;;;;;;5061594;28;20103;-60
2023/01/06 01:34:00;;;;;;;0.70;0.70;;;;;;;;;;5063665;28;20501;-60
2023/01/06 01:36:26;;;;;;;2.55;1.20;;;;;;;;;;5063320;28;20028;-60
2023/01/06 01:38:51;;;;;;;1.00;0.98;;;;;;;;;;5063464;28;20415;-60
2023/01/06 01:41:17;;;;;;;2.72;1.30;;;;;;;;;;5062672;28;20050;-61
2023/01/06 01:43:42;;;;;;;1.30;1.20;;;;;;;;;;5056928;28;20040;-61
2023/01/06 01:46:07;;;;;;;3.95;1.40;;;;;;;;;;5062965;28;20489;-61
2023/01/06 01:48:33;;;;;;;1.50;1.20;;;;;;;;;;5061146;28;20056;-58
2023/01/06 01:50:59;;;;;;;2.75;1.17;;;;;;;;;;5063210;28;20521;-59
2023/01/06 01:53:25;;;;;;;2.03;1.10;;;;;;;;;;5063240;28;20024;-59
2023/01/06 01:55:51;;;;;;;2.42;1.10;;;;;;;;;;5063224;28;20138;-59
2023/01/06 01:58:18;;;;;;;3.20;1.08;;;;;;;;;;5061976;28;20050;-59
2023/01/06 02:00:43;;;;;;;2.67;1.10;;;;;;;;;;5078469;28;20039;-60
2023/01/06 02:03:09;;;;;;;1.17;1.02;;;;;;;;;;5063170;28;20020;-60
2023/01/06 02:05:35;;;;;;;1.95;1.13;;;;;;;;;;5062012;28;20024;-60
2023/01/06 02:08:01;;;;;;;3.33;1.10;;;;;;;;;;5063149;28;20024;-61
2023/01/06 02:10:26;;;;;;;3.28;1.05;;;;;;;;;;5041355;28;20049;-60
2023/01/06 02:12:53;;;;;;;1.13;1.00;;;;;;;;;;5059992;28;20016;-59
2023/01/06 02:15:28;;;;;;;2.53;1.10;;;;;;;;;;5078259;28;20174;-59
2023/01/06 02:18:09;;;;;;;5.18;1.23;;;;;;;;;;5063517;28;20021;-59
2023/01/06 02:20:53;;;;;;;1.10;1.00;;;;;;;;;;5043300;28;20093;-59
2023/01/06 02:23:21;;;;;;;1.35;1.10;;;;;;;;;;5060732;28;20020;-59
2023/01/06 02:25:53;;;;;;;3.20;1.15;;;;;;;;;;5064438;28;20040;-60
2023/01/06 02:28:21;;;;;;;4.45;1.27;;;;;;;;;;5061604;28;20051;-59
2023/01/06 02:31:19;;;;;;;3.03;1.17;;;;;;;;;;5066757;28;20111;-59
2023/01/06 02:34:03;;;;;;;2.60;1.27;;;;;;;;;;5053890;28;20046;-59
2023/01/06 02:36:40;;;;;;;2.08;0.90;;;;;;;;;;5063877;28;20101;-59
2023/01/06 02:39:05;;;;;;;3.75;0.95;;;;;;;;;;5065771;28;20024;-59
2023/01/06 02:41:40;;;;;;;0.98;0.70;;;;;;;;;;5065578;28;20093;-59
2023/01/06 02:44:08;;;;;;;2.95;0.80;;;;;;;;;;5063514;28;20084;-59
2023/01/06 02:46:38;;;;;;;0.95;0.90;;;;;;;;;;5066445;28;20020;-59
2023/01/06 02:49:06;;;;;;;0.57;0.57;;;;;;;;;;5060921;28;20422;-59
2023/01/06 02:51:31;;;;;;;2.03;0.77;;;;;;;;;;5067005;28;20047;-59
2023/01/06 02:54:12;;;;;;;3.08;1.00;;;;;;;;;;5067536;28;20643;-59
2023/01/06 02:56:37;;;;;;;;;;;;;;;;;;5067396;28;20074;-59
2023/01/06 02:59:06;;;;;;;1.35;1.00;;;;;;;;;;5065630;28;19912;-59
2023/01/06 03:01:39;;;;;;;6.40;1.35;;;;;;;;;;5062983;28;20028;-59
2023/01/06 03:04:06;;;;;;;1.40;1.05;;;;;;;;;;5064529;28;20029;-60
2023/01/06 03:06:31;;;;;;;1.85;1.00;;;;;;;;;;5065140;28;20555;-60
2023/01/06 03:08:56;;;;;;;1.67;1.20;;;;;;;;;;5064482;28;20032;-59
2023/01/06 03:11:22;;;;;;;4.45;1.05;;;;;;;;;;5063676;28;20033;-59
2023/01/06 03:13:49;;;;;;;2.47;1.10;;;;;;;;;;5058576;28;20050;-59
2023/01/06 03:16:14;;;;;;;1.27;1.05;;;;;;;;;;5064941;28;20566;-59
2023/01/06 03:18:40;;;;;;;3.13;1.13;;;;;;;;;;5064884;28;20104;-59
2023/01/06 03:21:07;;;;;;;1.15;0.88;;;;;;;;;;5065233;28;20036;-61
2023/01/06 03:23:32;;;;;;;2.00;1.23;;;;;;;;;;5066123;28;20017;-59
2023/01/06 03:25:57;;;;;;;2.08;1.20;;;;;;;;;;5064502;28;20466;-59
2023/01/06 03:28:22;;;;;;;1.63;1.10;;;;;;;;;;5064734;28;20029;-59
2023/01/06 03:31:05;;;;;;;4.47;1.30;;;;;;;;;;5065618;28;20028;-60
2023/01/06 03:33:48;;;;;;;2.47;1.20;;;;;;;;;;5064908;28;20446;-59
2023/01/06 03:36:23;;;;;;;3.53;1.48;;;;;;;;;;5064416;28;20048;-59
2023/01/06 03:38:52;;;;;;;1.30;1.13;;;;;;;;;;5079812;28;20081;-60
2023/01/06 03:41:18;;;;;;;4.80;1.40;;;;;;;;;;5063060;28;20017;-60
2023/01/06 03:43:49;;;;;;;4.25;1.20;;;;;;;;;;5058051;28;20059;-59
2023/01/06 03:46:21;;;;;;;2.90;1.10;;;;;;;;;;5065855;28;20711;-59
2023/01/06 03:48:52;;;;;;;2.38;1.08;;;;;;;;;;5063229;28;20027;-59
2023/01/06 03:51:21;;;;;;;2.17;1.23;;;;;;;;;;5063292;28;20479;-59
2023/01/06 03:53:57;;;;;;;2.50;1.13;;;;;;;;;;5065462;28;20510;-59
2023/01/06 03:56:22;;;;;;;2.75;1.33;;;;;;;;;;5077107;28;20390;-59
2023/01/06 03:58:48;;;;;;;2.78;1.40;;;;;;;;;;5064428;28;20023;-60
2023/01/06 04:01:13;;;;;;;1.55;1.00;;;;;;;;;;5062583;28;20119;-59
2023/01/06 04:03:39;;;;;;;4.45;1.27;;;;;;;;;;5063819;28;20107;-59
2023/01/06 04:06:04;;;;;;;3.47;1.10;;;;;;;;;;5060874;28;20478;-59
2023/01/06 04:08:29;;;;;;;3.35;1.38;;;;;;;;;;5062985;28;20767;-59
2023/01/06 04:10:54;;;;;;;2.60;1.20;;;;;;;;;;5064631;28;20102;-59
2023/01/06 04:13:20;;;;;;;1.67;1.20;;;;;;;;;;5064512;28;20016;-59
2023/01/06 04:15:45;;;;;;;2.72;1.13;;;;;;;;;;5061002;28;20036;-59
2023/01/06 04:18:10;;;;;;;3.47;1.13;;;;;;;;;;5063748;28;20397;-59
2023/01/06 04:20:35;;;;;;;3.50;1.25;;;;;;;;;;5060287;28;20024;-59
2023/01/06 04:23:01;;;;;;;1.77;1.05;;;;;;;;;;5065507;28;20106;-59
2023/01/06 04:25:26;;;;;;;3.13;1.40;;;;;;;;;;5063250;28;20111;-59
2023/01/06 04:27:51;;;;;;;3.95;1.40;;;;;;;;;;5065230;28;20013;-59
2023/01/06 04:30:16;;;;;;;2.97;1.40;;;;;;;;;;5063551;28;20024;-59
2023/01/06 04:32:42;;;;;;;3.40;1.42;;;;;;;;;;5064538;28;20035;-58
2023/01/06 04:35:07;;;;;;;5.53;1.58;;;;;;;;;;5064706;28;20434;-59
2023/01/06 04:37:32;;;;;;;3.50;1.60;;;;;;;;;;5064037;28;20031;-59
2023/01/06 04:39:58;;;;;;;1.73;1.35;;;;;;;;;;5059674;28;20203;-59
2023/01/06 04:42:23;;;;;;;4.82;1.40;;;;;;;;;;5051384;28;20104;-59
2023/01/06 04:44:48;;;;;;;2.47;1.25;;;;;;;;;;5061701;28;20020;-59
2023/01/06 04:47:13;;;;;;;7.40;1.80;;;;;;;;;;5046094;28;20032;-59
2023/01/06 04:49:38;;;;;;;2.35;1.30;;;;;;;;;;5051869;28;20036;-59
2023/01/06 04:52:04;;;;;;;5.88;1.70;;;;;;;;;;5055927;28;20131;-59
2023/01/06 04:54:29;;;;;;;4.15;1.45;;;;;;;;;;5057002;28;20116;-59
2023/01/06 04:56:54;;;;;;;3.17;1.42;;;;;;;;;;5056747;28;20375;-59
2023/01/06 04:59:20;;;;;;;6.45;1.70;;;;;;;;;;5053560;28;20008;-59
2023/01/06 05:01:45;;;;;;;8.10;1.85;;;;;;;;;;5058709;28;20032;-59
2023/01/06 05:04:10;;;;;;;7.07;1.77;;;;;;;;;;5056934;28;20128;-60
2023/01/06 05:06:36;;;;;;;2.97;1.52;;;;;;;;;;5057598;28;20066;-59
2023/01/06 05:09:01;;;;;;;6.47;1.70;;;;;;;;;;5059758;28;20491;-58
2023/01/06 05:11:27;;;;;;;3.85;1.52;;;;;;;;;;5049762;28;20035;-59
2023/01/06 05:13:52;;;;;;;2.08;1.50;;;;;;;;;;5057391;28;20033;-59
2023/01/06 05:16:23;;;;;;;5.28;1.70;;;;;;;;;;5052209;28;20308;-59
2023/01/06 05:18:48;;;;;;;2.95;1.48;;;;;;;;;;5057342;28;20017;-59
2023/01/06 05:21:14;;;;;;;3.45;1.52;;;;;;;;;;5053995;28;20020;-59
2023/01/06 05:23:39;;;;;;;3.92;1.33;;;;;;;;;;5054962;28;20016;-59
2023/01/06 05:26:04;;;;;;;7.03;1.85;;;;;;;;;;5061361;28;20510;-59
2023/01/06 05:28:30;;;;;;;5.10;1.65;;;;;;;;;;5058959;28;20457;-59
2023/01/06 05:31:02;;;;;;;6.90;1.70;;;;;;;;;;5053730;28;20017;-59
2023/01/06 05:33:27;;;;;;;4.00;1.67;;;;;;;;;;5057484;28;20020;-58
2023/01/06 05:36:05;;;;;;;7.47;2.00;;;;;;;;;;5058086;28;20054;-59
2023/01/06 05:38:31;;;;;;;5.00;1.80;;;;;;;;;;5060849;28;20521;-59
2023/01/06 05:40:56;;;;;;;4.63;1.65;;;;;;;;;;5053836;28;20162;-59
2023/01/06 05:43:21;;;;;;;4.15;1.70;;;;;;;;;;5057611;28;20024;-58
2023/01/06 05:45:47;;;;;;;5.60;1.90;;;;;;;;;;5056812;28;20043;-58
2023/01/06 05:48:12;;;;;;;5.25;2.13;;;;;;;;;;5051098;28;20111;-58
2023/01/06 05:50:37;;;;;;;3.70;1.80;;;;;;;;;;5047992;28;20066;-59
2023/01/06 05:53:02;;;;;;;4.75;1.85;;;;;;;;;;5054415;28;20520;-58
2023/01/06 05:55:27;;;;;;;4.47;1.83;;;;;;;;;;5055751;28;20115;-58
2023/01/06 05:57:53;;;;;;;4.60;2.17;;;;;;;;;;5050304;28;20021;-59
2023/01/06 06:00:18;;;;;;;3.92;1.70;;;;;;;;;;5054772;28;20157;-59
2023/01/06 06:02:43;;;;;;;5.32;1.70;;;;;;;;;;5053917;28;20017;-59
2023/01/06 06:05:08;;;;;;;4.13;1.65;;;;;;;;;;5056158;28;20149;-59
2023/01/06 06:07:34;;;;;;;4.35;1.70;;;;;;;;;;5063026;28;20040;-59
2023/01/06 06:09:59;;;;;;;2.17;1.58;;;;;;;;;;5062502;28;20033;-59
2023/01/06 06:12:24;;;;;;;3.50;1.83;;;;;;;;;;5064606;28;20009;-59
2023/01/06 06:14:49;;;;;;;9.50;1.80;;;;;;;;;;5054738;28;20133;-59
2023/01/06 06:17:15;;;;;;;7.93;1.77;;;;;;;;;;5057516;28;20074;-59
2023/01/06 06:19:40;;;;;;;3.80;1.77;;;;;;;;;;5074359;28;20310;-60
2023/01/06 06:22:05;;;;;;;5.95;1.90;;;;;;;;;;5057912;28;20025;-59
2023/01/06 06:24:30;;;;;;;4.47;1.85;;;;;;;;;;5054866;28;20017;-60
2023/01/06 06:26:56;;;;;;;4.13;1.67;;;;;;;;;;5057460;28;20042;-60
2023/01/06 06:29:21;;;;;;;4.45;2.08;;;;;;;;;;5059784;28;20021;-60
2023/01/06 06:31:46;;;;;;;8.82;2.90;;;;;;;;;;5054496;28;20025;-58
2023/01/06 06:34:11;;;;;;;3.95;1.92;;;;;;;;;;5061645;28;20024;-61
2023/01/06 06:36:37;;;;;;;9.13;2.35;;;;;;;;;;5075601;28;20036;-60
2023/01/06 06:39:02;;;;;;;4.18;2.20;;;;;;;;;;5059281;28;20609;-60
2023/01/06 06:41:27;;;;;;;7.03;2.00;;;;;;;;;;5058376;28;20028;-61
2023/01/06 06:43:53;;;;;;;12.57;2.70;;;;;;;;;;5048312;28;20032;-60
2023/01/06 06:46:18;;;;;;;6.80;2.20;;;;;;;;;;5064845;28;20024;-60
2023/01/06 06:48:43;;;;;;;7.57;2.22;;;;;;;;;;5057363;28;20020;-60
2023/01/06 06:51:09;;;;;;;3.63;1.98;;;;;;;;;;5059469;28;20052;-58
2023/01/06 06:53:34;;;;;;;7.82;2.08;;;;;;;;;;5050202;28;20033;-59
2023/01/06 06:55:59;;;;;;;7.20;2.38;;;;;;;;;;5077981;28;20036;-59
2023/01/06 06:58:25;;;;;;;6.05;1.83;;;;;;;;;;5063591;28;20108;-59
2023/01/06 07:00:50;;;;;;;5.97;2.30;;;;;;;;;;5055444;28;20111;-59
2023/01/06 07:03:16;;;;;;;4.63;2.00;;;;;;;;;;5054825;28;20040;-59
2023/01/06 07:05:42;;;;;;;5.35;2.10;;;;;;;;;;5059208;28;20414;-60
2023/01/06 07:08:07;;;;;;;6.53;2.17;;;;;;;;;;5060826;28;20063;-59
2023/01/06 07:10:33;;;;;;;4.43;2.22;;;;;;;;;;5053667;28;20448;-59
2023/01/06 07:12:58;;;;;;;6.13;1.90;;;;;;;;;;5053689;28;20056;-61
2023/01/06 07:15:23;;;;;;;3.85;2.05;;;;;;;;;;5055478;28;20342;-60
2023/01/06 07:17:48;;;;;;;6.88;2.22;;;;;;;;;;5067929;28;20032;-60
2023/01/06 07:20:14;;;;;;;10.15;2.38;;;;;;;;;;5056558;28;20051;-61
2023/01/06 07:22:39;;;;;;;6.18;2.10;;;;;;;;;;5061041;28;20077;-59
2023/01/06 07:25:05;;;;;;;6.05;2.20;;;;;;;;;;5059220;28;20044;-60
2023/01/06 07:27:31;;;;;;;3.85;2.13;;;;;;;;;;5054305;28;20028;-59
2023/01/06 07:29:56;;;;;;;5.38;1.88;;;;;;;;;;5053889;28;20025;-59
2023/01/06 07:32:21;;;;;;;6.10;2.17;;;;;;;;;;5051358;28;20049;-59
2023/01/06 07:34:46;;;;;;;4.72;2.00;;;;;;;;;;5051815;28;20028;-59
2023/01/06 07:37:11;;;;;;;4.57;2.15;;;;;;;;;;5060079;28;20017;-59
2023/01/06 07:39:37;;;;;;;3.95;2.13;;;;;;;;;;5050623;28;20115;-59
2023/01/06 07:42:02;;;;;;;7.90;2.22;;;;;;;;;;5052870;28;20038;-59
2023/01/06 07:44:27;;;;;;;5.20;2.10;;;;;;;;;;5050689;28;20034;-59
2023/01/06 07:46:52;;;;;;;4.45;2.30;;;;;;;;;;5052937;28;20579;-59
2023/01/06 07:49:18;;;;;;;4.22;2.00;;;;;;;;;;5060181;28;20017;-59
2023/01/06 07:51:43;;;;;;;3.78;2.13;;;;;;;;;;5050941;28;20539;-59
2023/01/06 07:54:08;;;;;;;3.58;2.10;;;;;;;;;;5051632;28;20162;-59
2023/01/06 07:56:34;;;;;;;8.93;2.30;;;;;;;;;;5057741;28;20125;-59
2023/01/06 07:58:59;;;;;;;7.18;2.30;;;;;;;;;;5047805;28;20041;-59
2023/01/06 08:01:24;;;;;;;4.10;2.10;;;;;;;;;;5046189;28;20026;-59
2023/01/06 08:03:49;;;;;;;6.43;2.33;;;;;;;;;;5051603;28;20028;-59
2023/01/06 08:06:14;;;;;;;5.85;2.55;;;;;;;;;;5056482;28;20082;-59
2023/01/06 08:08:40;;;;;;;3.92;2.40;;;;;;;;;;5048709;28;20040;-59
2023/01/06 08:11:06;;;;;;;7.18;2.30;;;;;;;;;;5054929;28;20368;-59
2023/01/06 08:13:31;;;;;;;6.32;2.00;;;;;;;;;;5053158;28;20378;-59
2023/01/06 08:15:56;;;;;;;5.25;2.03;;;;;;;;;;5060475;28;20375;-59
2023/01/06 08:18:21;;;;;;;7.90;1.88;;;;;;;;;;5052451;28;20020;-59
2023/01/06 08:20:47;;;;;;;5.88;1.98;;;;;;;;;;5055033;28;20055;-59
2023/01/06 08:23:12;;;;;;;6.25;1.80;;;;;;;;;;5054078;28;20025;-59
2023/01/06 08:25:37;;;;;;;5.40;1.88;;;;;;;;;;5059500;28;20017;-61
2023/01/06 08:28:08;;;;;;;4.55;1.65;;;;;;;;;;5054377;28;20029;-62
2023/01/06 08:30:38;;;;;;;6.15;1.80;;;;;;;;;;5050360;28;20335;-61
2023/01/06 08:33:04;;;;;;;5.13;2.00;;;;;;;;;;5051725;28;20439;-61
2023/01/06 08:35:29;;;;;;;9.20;2.30;;;;;;;;;;5050765;28;20039;-61
2023/01/06 08:37:54;;;;;;;9.23;1.95;;;;;;;;;;5059213;28;20020;-61
2023/01/06 08:40:19;;;;;;;5.43;1.60;;;;;;;;;;5050860;28;20028;-60
2023/01/06 08:42:44;;;;;;;6.95;1.65;;;;;;;;;;5053266;28;20025;-61
2023/01/06 08:45:11;;;;;;;1.83;1.38;;;;;;;;;;5053845;28;20025;-60
2023/01/06 08:47:37;;;;;;;4.05;1.77;;;;;;;;;;5053561;28;20052;-60
2023/01/06 08:50:02;;;;;;;2.75;1.60;;;;;;;;;;5058470;28;20024;-61
2023/01/06 08:52:27;;;;;;;3.20;1.50;;;;;;;;;;5059551;28;20021;-61
2023/01/06 08:54:52;;;;;;;3.80;1.60;;;;;;;;;;5058905;28;20044;-61
2023/01/06 08:57:18;;;;;;;3.00;1.40;;;;;;;;;;5058917;28;20487;-60
2023/01/06 08:59:43;;;;;;;6.18;1.50;;;;;;;;;;5059599;28;20119;-61
2023/01/06 09:02:11;;;;;;;2.92;1.50;;;;;;;;;;5060365;28;20056;-61
2023/01/06 09:04:36;;;;;;;6.43;1.73;;;;;;;;;;5059864;28;20409;-60
2023/01/06 09:07:01;;;;;;;3.25;1.58;;;;;;;;;;5060025;28;20037;-60
2023/01/06 09:09:27;;;;;;;3.30;1.45;;;;;;;;;;5061860;28;20106;-59
2023/01/06 09:11:52;;;;;;;3.28;1.40;;;;;;;;;;5061558;28;20024;-59
2023/01/06 09:14:17;;;;;;;1.30;1.20;;;;;;;;;;5063452;28;20025;-59
2023/01/06 09:16:43;;;;;;;2.88;1.50;;;;;;;;;;5062983;28;20037;-60
2023/01/06 09:19:11;;;;;;;1.73;1.27;;;;;;;;;;5062577;28;20107;-59
2023/01/06 09:21:36;;;;;;;1.20;1.00;;;;;;;;;;5061045;28;20137;-61
2023/01/06 09:24:01;;;;;;;1.88;1.30;;;;;;;;;;5062271;28;20066;-59
2023/01/06 09:26:27;;;;;;;2.13;1.13;;;;;;;;;;5055832;28;20017;-59
2023/01/06 09:28:52;;;;;;;1.90;1.10;;;;;;;;;;5059938;28;20030;-58
2023/01/06 09:31:17;;;;;;;4.38;0.93;;;;;;;;;;5057141;28;20029;-59
2023/01/06 09:33:45;;;;;;;3.38;1.42;;;;;;;;;;5060761;28;20037;-62
2023/01/06 09:36:11;;;;;;;6.25;1.40;;;;;;;;;;5060554;28;20071;-59
2023/01/06 09:38:36;;;;;;;3.88;1.48;;;;;;;;;;5054695;28;20109;-59
2023/01/06 09:41:04;;;;;;;2.70;1.38;;;;;;;;;;5060179;28;20039;-59
2023/01/06 09:43:35;;;;;;;2.65;1.55;;;;;;;;;;5061435;28;20243;-58
2023/01/06 09:46:01;;;;;;;5.30;1.45;;;;;;;;;;5060163;28;20052;-59
2023/01/06 09:48:28;;;;;;;4.13;1.20;;;;;;;;;;5043566;28;20387;-59
2023/01/06 09:50:55;;;;;;;4.47;1.30;;;;;;;;;;5062447;28;20029;-59
2023/01/06 09:53:39;;;;;;;3.03;1.10;;;;;;;;;;5058701;28;20028;-58
2023/01/06 09:56:06;;;;;;;1.75;1.30;;;;;;;;;;5059876;28;20037;-60
2023/01/06 09:58:34;;;;;;;1.95;1.30;;;;;;;;;;5057335;28;20459;-60
2023/01/06 10:01:00;;;;;;;2.65;1.27;;;;;;;;;;5060421;28;20024;-60
2023/01/06 10:03:25;;;;;;;3.05;1.40;;;;;;;;;;5059729;28;20027;-60
2023/01/06 10:06:10;;;;;;;2.15;1.35;;;;;;;;;;5059379;28;20103;-60
2023/01/06 10:08:38;;;;;;;2.05;1.38;;;;;;;;;;5060190;28;20054;-60
2023/01/06 10:11:12;;;;;;;3.92;1.40;;;;;;;;;;5062302;28;20046;-60
2023/01/06 10:13:41;;;;;;;3.63;1.40;;;;;;;;;;5058894;28;20112;-60
2023/01/06 10:16:06;;;;;;;9.32;1.55;;;;;;;;;;5055865;28;20123;-60
2023/01/06 10:18:37;;;;;;;2.25;1.30;;;;;;;;;;5062821;28;20043;-60
2023/01/06 10:21:12;;;;;;;1.30;1.13;;;;;;;;;;5062414;28;20043;-60
2023/01/06 10:23:41;;;;;;;4.50;1.27;;;;;;;;;;5053574;28;20222;-59
2023/01/06 10:26:15;;;;;;;1.67;1.20;;;;;;;;;;5060776;28;20059;-59
2023/01/06 10:28:46;;;;;;;2.05;1.30;;;;;;;;;;5062946;28;20522;-60
2023/01/06 10:31:15;;;;;;;3.45;1.30;;;;;;;;;;5061846;28;20033;-58
2023/01/06 10:33:47;;;;;;;5.85;1.67;;;;;;;;;;5056444;28;20107;-59
2023/01/06 10:36:13;;;;;;;3.80;1.50;;;;;;;;;;5051006;28;20064;-59
2023/01/06 10:38:39;;;;;;;1.70;1.00;;;;;;;;;;5059780;28;20059;-59
2023/01/06 10:41:09;;;;;;;1.85;1.45;;;;;;;;;;5059035;28;20691;-59
2023/01/06 10:43:35;;;;;;;6.18;4.10;;;;;;;;;;5066419;28;20535;-61
2023/01/06 10:46:00;;;;;;;83.78;39.92;;;;;;;;;;5060041;28;20042;-59
2023/01/06 10:48:26;;;;;;;39.50;17.38;;;;;;;;;;5057992;28;20048;-59
2023/01/06 10:50:51;;;;;;;21.10;9.00;;;;;;;;;;5060204;28;20035;-58
2023/01/06 10:53:16;;;;;;;12.27;6.97;;;;;;;;;;5063521;28;20457;-60
2023/01/06 10:55:52;;;;;;;17.67;10.07;;;;;;;;;;5061430;28;20407;-60
2023/01/06 10:58:22;;;;;;;52.55;25.63;;;;;;;;;;5064274;28;20017;-60
2023/01/06 11:00:57;;;;;;;25.23;13.98;;;;;;;;;;5064707;28;20032;-60
2023/01/06 11:03:22;;;;;;;36.95;20.20;;;;;;;;;;5060405;28;20025;-59
2023/01/06 11:05:47;;;;;;;26.08;16.42;;;;;;;;;;5064829;28;20024;-60
2023/01/06 11:08:13;;;;;;;5.80;2.80;;;;;;;;;;5064667;28;20028;-59
2023/01/06 11:10:40;;;;;;;3.95;2.75;;;;;;;;;;5065072;28;20029;-58
2023/01/06 11:13:06;;;;;;;5.45;2.67;;;;;;;;;;5063426;28;20039;-58
2023/01/06 11:15:38;;;;;;;5.50;2.97;;;;;;;;;;5065190;28;20174;-59
2023/01/06 11:18:03;;;;;;;6.47;3.22;;;;;;;;;;5062578;28;20503;-60
2023/01/06 11:20:29;;;;;;;2.08;1.33;;;;;;;;;;5065931;28;20150;-60
2023/01/06 11:22:56;;;;;;;4.88;2.80;;;;;;;;;;5065180;28;20098;-60
2023/01/06 11:25:21;;;;;;;4.82;3.05;;;;;;;;;;5061729;28;20060;-60
2023/01/06 11:27:47;;;;;;;7.90;3.70;;;;;;;;;;5065815;28;20117;-60
2023/01/06 11:30:38;;;;;;;6.20;4.35;;;;;;;;;;5061287;28;20385;-60
2023/01/06 11:33:04;;;;;;;11.85;8.57;;;;;;;;;;5061080;28;20033;-58
2023/01/06 11:35:30;;;;;;;3.88;2.38;;;;;;;;;;5045942;28;20051;-58
2023/01/06 11:37:55;;;;;;;5.22;2.97;;;;;;;;;;5063680;28;20016;-58
2023/01/06 11:40:28;;;;;;;5.30;3.22;;;;;;;;;;5064919;28;20059;-60
2023/01/06 11:42:55;;;;;;;3.00;2.00;;;;;;;;;;5062424;28;20040;-60
2023/01/06 11:45:33;;;;;;;7.93;5.53;;;;;;;;;;5073554;28;20475;-60
2023/01/06 11:47:58;;;;;;;3.47;1.50;;;;;;;;;;5063730;28;20566;-60
2023/01/06 11:50:23;;;;;;;8.45;1.70;;;;;;;;;;5062377;28;20115;-60
2023/01/06 11:52:58;;;;;;;4.75;2.00;;;;;;;;;;5065722;28;20534;-59
2023/01/06 11:55:26;;;;;;;26.52;12.30;;;;;;;;;;5064311;28;20105;-60
2023/01/06 11:58:06;;;;;;;40.55;20.50;;;;;;;;;;5060876;28;20785;-60
2023/01/06 12:00:43;;;;;;;5.35;1.80;;;;;;;;;;5063519;28;20087;-60
2023/01/06 12:03:18;;;;;;;9.70;3.58;;;;;;;;;;5063400;28;20033;-59
2023/01/06 12:05:57;;;;;;;6.40;2.40;;;;;;;;;;5061900;28;20478;-59
2023/01/06 12:08:23;;;;;;;4.13;2.35;;;;;;;;;;5062231;28;20107;-59
2023/01/06 12:10:57;;;;;;;13.10;4.40;;;;;;;;;;5060112;28;20020;-60
2023/01/06 12:13:23;;;;;;;15.68;9.20;;;;;;;;;;5056788;28;20501;-60
2023/01/06 12:15:50;;;;;;;8.65;4.00;;;;;;;;;;5064063;28;20029;-59
2023/01/06 12:18:17;;;;;;;27.83;14.02;;;;;;;;;;5061747;28;20546;-60
2023/01/06 12:20:43;;;;;;;9.35;4.68;;;;;;;;;;5064012;28;20032;-59
2023/01/06 12:23:17;;;;;;;11.45;7.40;;;;;;;;;;5063249;28;20054;-60
2023/01/06 12:25:49;;;;;;;8.63;4.57;;;;;;;;;;5055989;28;20877;-60
2023/01/06 12:28:18;;;;;;;2.60;1.80;;;;;;;;;;5064043;28;20479;-59
2023/01/06 12:31:03;;;;;;;5.30;1.67;;;;;;;;;;5061332;28;20498;-59
2023/01/06 12:33:38;;;;;;;2.83;1.40;;;;;;;;;;5063868;28;20059;-58
2023/01/06 12:36:10;;;;;;;2.97;1.60;;;;;;;;;;5062025;28;20040;-59
2023/01/06 12:38:36;;;;;;;1.77;1.40;;;;;;;;;;5056572;28;20158;-60
2023/01/06 12:41:22;;;;;;;2.10;1.40;;;;;;;;;;5062745;28;20111;-58
2023/01/06 12:43:50;;;;;;;1.48;1.38;;;;;;;;;;5057747;28;20020;-58
2023/01/06 12:46:20;;;;;;;6.32;2.60;;;;;;;;;;5060499;28;20038;-59
2023/01/06 12:48:48;;;;;;;25.33;7.80;;;;;;;;;;5062484;28;20031;-58
2023/01/06 12:51:18;;;;;;;280.63;64.78;;;;;;;;;;5064065;28;20064;-58
2023/01/06 12:53:52;;;;;;;288.08;70.43;;;;;;;;;;5061331;28;20103;-59
2023/01/06 12:56:17;;;;;;;248.93;61.75;;;;;;;;;;5055149;28;20250;-59
2023/01/06 12:58:42;;;;;;;291.20;74.50;;;;;;;;;;5062620;28;20093;-60
2023/01/06 13:01:09;;;;;;;44.50;25.08;;;;;;;;;;5062926;28;20028;-60
2023/01/06 13:03:44;;;;;;;4.57;1.80;;;;;;;;;;5060103;28;20038;-60
2023/01/06 13:06:18;;;;;;;6.50;4.03;;;;;;;;;;5063050;28;20083;-60
2023/01/06 13:08:52;;;;;;;13.25;8.02;;;;;;;;;;5060476;28;20123;-60
2023/01/06 13:11:17;;;;;;;1.63;1.30;;;;;;;;;;5061272;28;20024;-60
2023/01/06 13:14:01;;;;;;;3.30;2.10;;;;;;;;;;5054753;28;20195;-60
2023/01/06 13:16:26;;;;;;;14.70;7.35;;;;;;;;;;5057854;28;20701;-60
2023/01/06 13:18:54;;;;;;;5.72;3.25;;;;;;;;;;5062207;28;20120;-59
2023/01/06 13:21:20;;;;;;;8.63;5.00;;;;;;;;;;5061885;28;20024;-59
2023/01/06 13:23:51;;;;;;;5.38;2.72;;;;;;;;;;5063647;28;20150;-60
2023/01/06 13:26:22;;;;;;;10.27;4.75;;;;;;;;;;5077052;28;20449;-60
2023/01/06 13:28:51;;;;;;;25.08;11.48;;;;;;;;;;5063846;28;20558;-60
2023/01/06 13:31:39;;;;;;;29.70;13.50;;;;;;;;;;5060740;28;20075;-59
2023/01/06 13:34:16;;;;;;;20.42;9.43;;;;;;;;;;5061668;28;20059;-59
2023/01/06 13:37:11;;;;;;;28.33;12.18;;;;;;;;;;5057608;28;20098;-59
2023/01/06 13:39:38;;;;;;;3.50;2.25;;;;;;;;;;5056240;28;20035;-60
2023/01/06 13:42:03;;;;;;;15.57;8.05;;;;;;;;;;5056300;28;20067;-60
2023/01/06 13:44:29;;;;;;;18.08;8.15;;;;;;;;;;5067706;28;20341;-60
2023/01/06 13:47:02;;;;;;;18.98;8.80;;;;;;;;;;5062954;28;20093;-60
2023/01/06 13:49:27;;;;;;;14.98;7.07;;;;;;;;;;5063217;28;20028;-60
2023/01/06 13:51:52;;;;;;;7.90;3.63;;;;;;;;;;5062137;28;20133;-60
2023/01/06 13:54:36;;;;;;;9.02;4.55;;;;;;;;;;5063216;28;20013;-60
2023/01/06 13:57:20;;;;;;;9.95;5.03;;;;;;;;;;5061843;28;20066;-60
2023/01/06 13:59:48;;;;;;;4.45;2.30;;;;;;;;;;5062370;28;20070;-60
2023/01/06 14:02:41;;;;;;;25.20;9.45;;;;;;;;;;5060620;28;20553;-60
2023/01/06 14:05:19;;;;;;;12.13;5.50;;;;;;;;;;5059966;28;20111;-60
2023/01/06 14:07:59;;;;;;;16.15;6.68;;;;;;;;;;5058737;28;20036;-60
2023/01/06 14:10:27;;;;;;;15.65;7.45;;;;;;;;;;5055028;28;20024;-59
2023/01/06 14:12:52;;;;;;;9.50;4.60;;;;;;;;;;5058080;28;20232;-60
2023/01/06 14:15:19;;;;;;;9.02;4.18;;;;;;;;;;5054786;28;20032;-60
2023/01/06 14:17:45;;;;;;;8.40;4.95;;;;;;;;;;5058579;28;20102;-60
2023/01/06 14:20:22;;;;;;;7.95;4.15;;;;;;;;;;5058627;28;20400;-60
2023/01/06 14:22:56;;;;;;;12.13;6.75;;;;;;;;;;5064087;28;20089;-60
2023/01/06 14:25:22;;;;;;;18.52;8.35;;;;;;;;;;5058467;28;20024;-60
2023/01/06 14:27:47;;;;;;;9.45;5.45;;;;;;;;;;5060477;28;20093;-59
2023/01/06 14:30:24;;;;;;;8.75;5.20;;;;;;;;;;5063901;28;20112;-60
2023/01/06 14:32:50;;;;;;;10.93;6.43;;;;;;;;;;5063397;28;20456;-59
2023/01/06 14:35:19;;;;;;;13.32;5.13;;;;;;;;;;5064402;28;20151;-59
2023/01/06 14:37:46;;;;;;;11.80;5.60;;;;;;;;;;5062259;28;20063;-58
2023/01/06 14:40:22;;;;;;;31.20;11.48;;;;;;;;;;5060198;28;20459;-59
2023/01/06 14:42:47;;;;;;;8.55;4.05;;;;;;;;;;5054758;28;20025;-58
2023/01/06 14:45:15;;;;;;;10.45;4.20;;;;;;;;;;5044166;28;20551;-59